createdAt,value
2022-11-27T00:01:34.935Z,23.93
2022-11-27T00:04:02.983Z,22.87
2022-11-27T00:06:31.869Z,23.33
2022-11-27T00:09:02.289Z,22.80
2022-11-27T00:11:31.816Z,21.93
2022-11-27T00:14:00.084Z,23.20
2022-11-27T00:16:28.705Z,21.87
2022-11-27T00:18:56.189Z,21.90
2022-11-27T00:21:28.530Z,23.20
2022-11-27T00:23:58.644Z,30.07
2022-11-27T00:26:27.740Z,32.70
2022-11-27T00:28:56.109Z,29.57
2022-11-27T00:31:30.587Z,28.23
2022-11-27T00:34:01.065Z,32.10
2022-11-27T00:36:31.210Z,28.77
2022-11-27T00:38:58.940Z,25.83
2022-11-27T00:41:29.348Z,28.13
2022-11-27T00:43:57.617Z,25.17
2022-11-27T00:46:30.112Z,24.17
2022-11-27T00:49:02.589Z,24.70
2022-11-27T00:51:30.655Z,25.73
2022-11-27T00:53:59.309Z,25.30
2022-11-27T00:56:31.782Z,27.67
2022-11-27T00:59:00.110Z,24.13
2022-11-27T01:01:34.380Z,23.30
2022-11-27T01:04:04.606Z,25.77
2022-11-27T01:06:32.685Z,22.37
2022-11-27T01:09:00.643Z,22.87
2022-11-27T01:11:32.766Z,23.07
2022-11-27T01:14:08.075Z,23.50
2022-11-27T01:16:38.546Z,21.90
2022-11-27T01:19:10.212Z,21.87
2022-11-27T01:21:37.691Z,21.67
2022-11-27T01:24:06.085Z,22.17
2022-11-27T01:26:33.654Z,22.07
2022-11-27T01:29:01.573Z,22.67
2022-11-27T01:31:33.185Z,24.07
2022-11-27T01:34:05.468Z,22.13
2022-11-27T01:36:34.572Z,21.53
2022-11-27T01:39:02.743Z,20.10
2022-11-27T01:41:37.200Z,20.73
2022-11-27T01:44:24.554Z,26.43
2022-11-27T01:47:13.905Z,23.87
2022-11-27T01:49:52.699Z,22.57
2022-11-27T01:52:34.407Z,24.27
2022-11-27T01:55:31.043Z,23.80
2022-11-27T01:58:13.464Z,21.13
2022-11-27T02:00:41.604Z,19.90
2022-11-27T02:03:09.417Z,20.50
2022-11-27T02:05:37.053Z,19.87
2022-11-27T02:08:08.902Z,19.23
2022-11-27T02:10:52.435Z,20.50
2022-11-27T02:13:46.344Z,26.00
2022-11-27T02:16:32.847Z,38.93
2022-11-27T02:19:04.856Z,23.77
2022-11-27T02:21:50.949Z,19.00
2022-11-27T02:24:50.007Z,19.97
2022-11-27T02:27:32.372Z,19.63
2022-11-27T02:30:03.318Z,18.93
2022-11-27T02:33:00.251Z,20.17
2022-11-27T02:35:48.219Z,18.73
2022-11-27T02:38:48.237Z,18.80
2022-11-27T02:41:27.055Z,23.87
2022-11-27T02:43:56.068Z,19.93
2022-11-27T02:46:24.918Z,20.43
2022-11-27T02:49:04.273Z,19.67
2022-11-27T02:51:39.935Z,21.73
2022-11-27T02:54:13.787Z,20.87
2022-11-27T02:56:43.193Z,22.10
2022-11-27T02:59:14.251Z,22.10
2022-11-27T03:01:56.156Z,21.87
2022-11-27T03:04:34.634Z,24.00
2022-11-27T03:07:15.872Z,21.63
2022-11-27T03:09:50.548Z,21.63
2022-11-27T03:12:19.430Z,21.50
2022-11-27T03:14:48.009Z,21.80
2022-11-27T03:17:33.247Z,22.57
2022-11-27T03:20:27.034Z,21.03
2022-11-27T03:22:58.122Z,22.83
2022-11-27T03:25:25.618Z,21.07
2022-11-27T03:28:01.819Z,21.43
2022-11-27T03:30:29.324Z,25.13
2022-11-27T03:32:56.920Z,25.90
2022-11-27T03:35:27.357Z,23.53
2022-11-27T03:37:56.048Z,22.43
2022-11-27T03:40:32.948Z,22.40
2022-11-27T03:43:19.741Z,22.30
2022-11-27T03:46:01.479Z,21.77
2022-11-27T03:48:49.149Z,21.37
2022-11-27T03:51:42.450Z,23.50
2022-11-27T03:54:27.840Z,23.10
2022-11-27T03:57:35.140Z,21.23
2022-11-27T04:00:08.830Z,22.90
2022-11-27T04:02:47.735Z,23.83
2022-11-27T04:05:15.647Z,23.67
2022-11-27T04:07:43.376Z,22.67
2022-11-27T04:10:12.356Z,21.70
2022-11-27T04:12:39.888Z,21.93
2022-11-27T04:15:08.178Z,21.73
2022-11-27T04:17:35.680Z,22.67
2022-11-27T04:20:03.710Z,22.73
2022-11-27T04:22:31.253Z,20.80
2022-11-27T04:24:58.793Z,20.43
2022-11-27T04:27:26.262Z,22.10
2022-11-27T04:29:53.644Z,22.53
2022-11-27T04:32:21.053Z,21.47
2022-11-27T04:34:48.615Z,19.90
2022-11-27T04:37:16.116Z,22.00
2022-11-27T04:39:43.568Z,22.23
2022-11-27T04:42:11.055Z,25.23
2022-11-27T04:44:38.815Z,22.57
2022-11-27T04:47:06.530Z,20.47
2022-11-27T04:49:34.235Z,19.33
2022-11-27T04:52:01.668Z,22.07
2022-11-27T04:54:29.069Z,17.97
2022-11-27T04:56:56.482Z,19.17
2022-11-27T04:59:23.999Z,19.77
2022-11-27T05:01:51.506Z,20.30
2022-11-27T05:04:19.058Z,17.87
2022-11-27T05:06:46.555Z,19.87
2022-11-27T05:09:14.180Z,19.57
2022-11-27T05:11:41.608Z,19.30
2022-11-27T05:14:15.275Z,18.00
2022-11-27T05:16:45.723Z,18.93
2022-11-27T05:19:15.141Z,18.80
2022-11-27T05:21:43.905Z,18.37
2022-11-27T05:24:12.208Z,19.40
2022-11-27T05:26:41.625Z,18.70
2022-11-27T05:29:10.799Z,19.43
2022-11-27T05:31:38.907Z,18.77
2022-11-27T05:34:06.608Z,19.47
2022-11-27T05:36:35.110Z,21.03
2022-11-27T05:39:04.975Z,22.37
2022-11-27T05:41:33.528Z,19.27
2022-11-27T05:44:01.024Z,18.50
2022-11-27T05:46:28.706Z,18.53
2022-11-27T05:48:56.246Z,17.63
2022-11-27T05:51:23.693Z,19.57
2022-11-27T05:53:51.236Z,19.80
2022-11-27T05:56:19.167Z,22.50
2022-11-27T05:58:48.398Z,21.13
2022-11-27T06:01:18.137Z,21.17
2022-11-27T06:03:46.014Z,18.83
2022-11-27T06:06:17.417Z,20.93
2022-11-27T06:08:45.990Z,20.90
2022-11-27T06:11:18.771Z,22.27
2022-11-27T06:13:47.799Z,20.77
2022-11-27T06:16:22.437Z,21.13
2022-11-27T06:18:52.925Z,21.77
2022-11-27T06:21:21.960Z,28.00
2022-11-27T06:23:49.948Z,30.97
2022-11-27T06:26:21.738Z,23.30
2022-11-27T06:28:50.228Z,19.47
2022-11-27T06:31:23.945Z,19.83
2022-11-27T06:33:53.649Z,19.43
2022-11-27T06:36:24.122Z,21.87
2022-11-27T06:38:51.627Z,20.90
2022-11-27T06:41:24.839Z,20.03
2022-11-27T06:43:52.429Z,20.97
2022-11-27T06:46:22.992Z,25.13
2022-11-27T06:48:52.798Z,24.47
2022-11-27T06:51:27.253Z,22.67
2022-11-27T06:53:55.205Z,22.10
2022-11-27T06:56:26.572Z,22.17
2022-11-27T06:58:58.256Z,21.07
2022-11-27T07:01:28.401Z,20.43
2022-11-27T07:03:57.204Z,22.70
2022-11-27T07:06:27.017Z,33.73
2022-11-27T07:08:55.400Z,28.93
2022-11-27T07:11:29.985Z,23.07
2022-11-27T07:14:03.987Z,24.47
2022-11-27T07:16:35.315Z,19.20
2022-11-27T07:19:06.697Z,18.70
2022-11-27T07:21:34.470Z,20.63
2022-11-27T07:24:01.924Z,18.33
2022-11-27T07:26:31.173Z,17.77
2022-11-27T07:28:58.938Z,18.07
2022-11-27T07:31:29.425Z,16.90
2022-11-27T07:33:57.718Z,17.37
2022-11-27T07:36:28.995Z,16.60
2022-11-27T07:38:58.314Z,16.70
2022-11-27T07:41:30.555Z,17.53
2022-11-27T07:43:59.905Z,16.90
2022-11-27T07:46:27.386Z,16.30
2022-11-27T07:48:54.809Z,15.87
2022-11-27T07:51:22.980Z,20.77
2022-11-27T07:53:53.513Z,18.30
2022-11-27T07:56:21.744Z,18.87
2022-11-27T07:58:49.647Z,22.47
2022-11-27T08:01:19.618Z,21.13
2022-11-27T08:03:47.404Z,17.57
2022-11-27T08:06:26.640Z,17.63
2022-11-27T08:08:56.863Z,15.30
2022-11-27T08:11:29.847Z,13.00
2022-11-27T08:14:00.538Z,14.17
2022-11-27T08:16:29.122Z,14.47
2022-11-27T08:18:57.301Z,13.40
2022-11-27T08:21:25.116Z,14.00
2022-11-27T08:23:52.912Z,11.73
2022-11-27T08:26:21.241Z,11.87
2022-11-27T08:28:48.671Z,15.73
2022-11-27T08:31:16.291Z,13.50
2022-11-27T08:33:43.770Z,13.97
2022-11-27T08:36:17.496Z,13.07
2022-11-27T08:38:46.412Z,12.60
2022-11-27T08:41:14.182Z,12.13
2022-11-27T08:43:41.757Z,12.03
2022-11-27T08:46:10.170Z,11.70
2022-11-27T08:48:37.837Z,12.23
2022-11-27T08:51:14.859Z,11.63
2022-11-27T08:53:45.734Z,12.03
2022-11-27T08:56:23.437Z,13.87
2022-11-27T08:58:51.532Z,13.30
2022-11-27T09:01:29.135Z,13.53
2022-11-27T09:03:57.199Z,13.87
2022-11-27T09:06:29.395Z,14.77
2022-11-27T09:09:06.189Z,14.07
2022-11-27T09:11:35.140Z,13.97
2022-11-27T09:14:04.712Z,12.10
2022-11-27T09:16:32.746Z,12.20
2022-11-27T09:19:00.316Z,11.63
2022-11-27T09:21:30.866Z,13.17
2022-11-27T09:24:02.343Z,12.83
2022-11-27T09:26:30.410Z,13.17
2022-11-27T09:28:59.717Z,12.67
2022-11-27T09:31:27.720Z,13.87
2022-11-27T09:33:55.291Z,14.77
2022-11-27T09:36:25.935Z,13.80
2022-11-27T09:38:54.266Z,14.80
2022-11-27T09:41:44.812Z,23.13
2022-11-27T09:44:40.287Z,16.03
2022-11-27T09:47:24.608Z,14.03
2022-11-27T09:50:04.499Z,15.93
2022-11-27T09:53:04.732Z,13.77
2022-11-27T09:55:44.044Z,12.83
2022-11-27T09:58:32.866Z,12.47
2022-11-27T10:01:00.360Z,15.00
2022-11-27T10:03:28.927Z,14.50
2022-11-27T10:06:44.133Z,13.77
2022-11-27T10:09:38.659Z,15.20
2022-11-27T10:12:36.363Z,16.23
2022-11-27T10:15:34.513Z,14.93
2022-11-27T10:18:36.077Z,13.90
2022-11-27T10:21:16.183Z,14.53
2022-11-27T10:24:19.124Z,12.50
2022-11-27T10:26:48.880Z,13.17
2022-11-27T10:29:34.184Z,14.47
2022-11-27T10:32:53.656Z,11.93
2022-11-27T10:35:20.219Z,12.10
2022-11-27T10:38:00.986Z,10.67
2022-11-27T10:40:40.671Z,11.73
2022-11-27T10:43:18.925Z,10.13
2022-11-27T10:46:15.291Z,11.00
2022-11-27T10:48:42.937Z,13.37
2022-11-27T10:51:30.728Z,13.53
2022-11-27T10:54:01.235Z,13.87
2022-11-27T10:56:50.366Z,13.80
2022-11-27T10:59:33.023Z,13.87
2022-11-27T11:02:03.587Z,13.50
2022-11-27T11:04:39.749Z,13.30
2022-11-27T11:07:29.422Z,14.87
2022-11-27T11:09:57.272Z,20.40
2022-11-27T11:12:25.074Z,24.60
2022-11-27T11:14:56.406Z,16.83
2022-11-27T11:17:34.497Z,14.40
2022-11-27T11:20:30.852Z,16.27
2022-11-27T11:22:58.566Z,15.30
2022-11-27T11:25:26.031Z,14.70
2022-11-27T11:27:53.780Z,14.10
2022-11-27T11:30:29.309Z,12.83
2022-11-27T11:33:02.971Z,14.10
2022-11-27T11:35:34.926Z,16.40
2022-11-27T11:38:05.827Z,12.97
2022-11-27T11:40:38.060Z,13.80
2022-11-27T11:43:24.254Z,10.97
2022-11-27T11:45:51.761Z,11.63
2022-11-27T11:48:27.619Z,11.47
2022-11-27T11:51:12.268Z,12.33
2022-11-27T11:53:45.617Z,11.93
2022-11-27T11:56:41.892Z,10.30
2022-11-27T11:59:45.323Z,10.90
2022-11-27T12:02:59.825Z,12.70
2022-11-27T12:05:36.650Z,12.87
2022-11-27T12:08:44.528Z,11.03
2022-11-27T12:11:18.477Z,10.50
2022-11-27T12:14:36.280Z,11.03
2022-11-27T12:17:38.485Z,12.77
2022-11-27T12:20:11.313Z,11.73
2022-11-27T12:22:57.380Z,13.57
2022-11-27T12:25:37.568Z,14.30
2022-11-27T12:28:22.942Z,11.47
2022-11-27T12:31:30.486Z,11.17
2022-11-27T12:34:03.312Z,10.97
2022-11-27T12:37:15.713Z,11.97
2022-11-27T12:40:40.833Z,12.03
2022-11-27T12:43:27.752Z,11.47
2022-11-27T12:46:20.175Z,11.53
2022-11-27T12:49:11.577Z,11.00
2022-11-27T12:52:17.376Z,12.37
2022-11-27T12:55:15.593Z,14.17
2022-11-27T12:58:01.016Z,12.87
2022-11-27T13:00:31.458Z,13.00
2022-11-27T13:03:25.597Z,12.20
2022-11-27T13:06:24.539Z,13.83
2022-11-27T13:09:10.198Z,14.17
2022-11-27T13:11:40.280Z,14.27
2022-11-27T13:14:20.205Z,14.73
2022-11-27T13:17:01.074Z,16.87
2022-11-27T13:19:48.250Z,15.73
2022-11-27T13:22:27.616Z,17.20
2022-11-27T13:24:57.079Z,18.73
2022-11-27T13:27:27.525Z,18.03
2022-11-27T13:30:04.495Z,20.13
2022-11-27T13:32:48.204Z,25.63
2022-11-27T13:35:42.861Z,19.43
2022-11-27T13:38:13.077Z,21.20
2022-11-27T13:40:50.089Z,23.93
2022-11-27T13:43:47.805Z,26.13
2022-11-27T13:46:31.265Z,27.00
2022-11-27T13:49:05.390Z,22.23
2022-11-27T13:51:39.033Z,17.33
2022-11-27T13:54:16.056Z,19.77
2022-11-27T13:56:44.057Z,24.50
2022-11-27T13:59:25.192Z,31.13
2022-11-27T14:02:04.486Z,27.40
2022-11-27T14:04:34.091Z,23.03
2022-11-27T14:07:07.237Z,20.33
2022-11-27T14:09:42.334Z,19.70
2022-11-27T14:12:31.088Z,25.93
2022-11-27T14:15:24.380Z,18.27
2022-11-27T14:18:03.970Z,19.90
2022-11-27T14:20:35.779Z,21.43
2022-11-27T14:23:18.543Z,27.83
2022-11-27T14:25:46.173Z,24.33
2022-11-27T14:28:22.067Z,21.83
2022-11-27T14:30:59.899Z,25.57
2022-11-27T14:33:31.210Z,23.23
2022-11-27T14:36:04.031Z,26.10
2022-11-27T14:38:35.043Z,19.97
2022-11-27T14:41:21.514Z,17.60
2022-11-27T14:43:49.975Z,16.40
2022-11-27T14:46:20.978Z,18.00
2022-11-27T14:48:57.186Z,16.97
2022-11-27T14:51:35.208Z,16.07
2022-11-27T14:54:09.407Z,15.50
2022-11-27T14:56:43.877Z,16.90
2022-11-27T14:59:18.164Z,14.03
2022-11-27T15:01:48.009Z,15.33
2022-11-27T15:04:37.596Z,19.67
2022-11-27T15:07:22.330Z,18.97
2022-11-27T15:09:53.504Z,16.97
2022-11-27T15:12:34.270Z,19.73
2022-11-27T15:15:23.289Z,17.27
2022-11-27T15:17:55.852Z,14.03
2022-11-27T15:20:45.808Z,14.57
2022-11-27T15:23:34.455Z,15.43
2022-11-27T15:26:11.018Z,14.93
2022-11-27T15:28:55.398Z,15.50
2022-11-27T15:31:29.445Z,16.70
2022-11-27T15:34:01.270Z,17.03
2022-11-27T15:36:58.233Z,16.97
2022-11-27T15:39:53.700Z,22.63
2022-11-27T15:42:22.547Z,29.27
2022-11-27T15:44:54.560Z,22.80
2022-11-27T15:47:33.739Z,33.07
2022-11-27T15:50:01.333Z,33.23
2022-11-27T15:52:29.473Z,25.23
2022-11-27T15:54:56.997Z,25.80
2022-11-27T15:57:25.341Z,26.50
2022-11-27T15:59:53.004Z,26.40
2022-11-27T16:02:20.546Z,24.50
2022-11-27T16:04:48.007Z,25.50
2022-11-27T16:07:15.639Z,27.50
2022-11-27T16:09:43.108Z,22.70
2022-11-27T16:12:10.520Z,23.53
2022-11-27T16:14:38.697Z,25.73
2022-11-27T16:17:06.444Z,26.50
2022-11-27T16:19:33.817Z,21.93
2022-11-27T16:22:01.359Z,20.40
2022-11-27T16:24:28.756Z,22.07
2022-11-27T16:26:56.289Z,24.83
2022-11-27T16:29:23.737Z,28.00
2022-11-27T16:31:51.267Z,27.20
2022-11-27T16:34:19.001Z,26.60
2022-11-27T16:36:46.490Z,25.60
2022-11-27T16:39:13.912Z,26.57
2022-11-27T16:41:41.382Z,22.13
2022-11-27T16:44:14.723Z,28.77
2022-11-27T16:46:44.424Z,30.50
2022-11-27T16:49:12.734Z,29.60
2022-11-27T16:51:40.884Z,30.80
2022-11-27T16:54:12.830Z,33.27
2022-11-27T16:56:40.591Z,38.57
2022-11-27T16:59:14.199Z,41.80
2022-11-27T17:01:42.821Z,41.97
2022-11-27T17:04:18.764Z,39.90
2022-11-27T17:06:48.296Z,33.77
2022-11-27T17:09:16.767Z,26.90
2022-11-27T17:11:50.630Z,25.80
2022-11-27T17:14:19.816Z,30.27
2022-11-27T17:16:47.735Z,33.03
2022-11-27T17:19:16.779Z,30.10
2022-11-27T17:21:44.685Z,29.00
2022-11-27T17:24:15.890Z,31.33
2022-11-27T17:26:45.301Z,31.97
2022-11-27T17:29:16.610Z,32.43
2022-11-27T17:31:44.744Z,36.33
2022-11-27T17:34:14.986Z,36.13
2022-11-27T17:36:44.944Z,33.90
2022-11-27T17:39:15.394Z,37.30
2022-11-27T17:41:45.345Z,34.87
2022-11-27T17:44:13.243Z,33.87
2022-11-27T17:46:40.991Z,36.67
2022-11-27T17:49:08.821Z,36.40
2022-11-27T17:51:37.357Z,50.27
2022-11-27T17:54:05.644Z,44.70
2022-11-27T17:56:34.859Z,45.00
2022-11-27T17:59:03.174Z,44.93
2022-11-27T18:01:31.306Z,35.63
2022-11-27T18:04:02.237Z,32.13
2022-11-27T18:06:30.618Z,32.60
2022-11-27T18:08:58.480Z,30.83
2022-11-27T18:11:29.429Z,29.13
2022-11-27T18:13:57.136Z,27.80
2022-11-27T18:16:31.974Z,27.70
2022-11-27T18:19:06.487Z,26.27
2022-11-27T18:21:34.668Z,24.83
2022-11-27T18:29:42.641Z,29.70
2022-11-27T18:32:12.101Z,36.23
2022-11-27T18:34:40.554Z,39.83
2022-11-27T18:37:08.630Z,41.37
2022-11-27T18:39:37.641Z,53.50
2022-11-27T18:42:06.543Z,47.10
2022-11-27T18:44:39.668Z,36.83
2022-11-27T18:47:10.776Z,28.57
2022-11-27T18:49:39.688Z,33.10
2022-11-27T18:52:08.231Z,52.43
2022-11-27T18:54:37.388Z,46.97
2022-11-27T18:57:07.232Z,38.97
2022-11-27T18:59:35.418Z,35.57
2022-11-27T19:02:04.369Z,30.17
2022-11-27T19:04:32.047Z,27.87
2022-11-27T19:06:59.465Z,31.20
2022-11-27T19:09:26.857Z,33.63
2022-11-27T19:11:54.327Z,26.37
2022-11-27T19:14:21.816Z,27.47
2022-11-27T19:16:49.844Z,30.67
2022-11-27T19:19:53.443Z,29.40
2022-11-27T19:22:08.177Z,27.10
2022-11-27T19:24:37.078Z,31.33
2022-11-27T19:27:04.619Z,27.60
2022-11-27T19:29:32.095Z,26.60
2022-11-27T19:32:01.286Z,26.50
2022-11-27T19:34:29.245Z,27.90
2022-11-27T19:36:58.539Z,26.10
2022-11-27T19:39:27.442Z,26.60
2022-11-27T19:41:55.110Z,26.40
2022-11-27T19:44:22.492Z,25.90
2022-11-27T19:46:50.036Z,30.07
2022-11-27T19:49:18.458Z,42.30
2022-11-27T19:51:46.696Z,39.77
2022-11-27T19:54:14.950Z,38.87
2022-11-27T19:56:43.354Z,38.30
2022-11-27T19:59:11.628Z,36.67
2022-11-27T20:01:40.486Z,38.67
2022-11-27T20:04:11.332Z,35.70
2022-11-27T20:06:39.663Z,32.60
2022-11-27T20:09:07.539Z,29.87
2022-11-27T20:11:38.304Z,25.67
2022-11-27T20:14:07.088Z,24.30
2022-11-27T20:16:38.122Z,23.93
2022-11-27T20:19:06.348Z,24.00
2022-11-27T20:21:34.242Z,26.20
2022-11-27T20:24:02.625Z,24.93
2022-11-27T20:26:30.867Z,28.20
2022-11-27T20:28:59.012Z,28.97
2022-11-27T20:31:33.073Z,28.43
2022-11-27T20:34:03.773Z,26.17
2022-11-27T20:36:33.718Z,28.17
2022-11-27T20:39:01.900Z,29.43
2022-11-27T20:41:30.187Z,29.93
2022-11-27T20:44:01.211Z,29.70
2022-11-27T20:46:29.124Z,31.67
2022-11-27T20:48:57.592Z,33.17
2022-11-27T20:51:28.839Z,34.43
2022-11-27T20:53:58.333Z,35.97
2022-11-27T20:56:26.258Z,34.13
2022-11-27T20:58:54.392Z,35.80
2022-11-27T21:01:21.839Z,34.97
2022-11-27T21:03:52.614Z,41.83
2022-11-27T21:06:23.464Z,34.43
2022-11-27T21:08:51.739Z,28.43
2022-11-27T21:11:26.176Z,27.93
2022-11-27T21:13:56.167Z,29.77
2022-11-27T21:16:29.683Z,29.33
2022-11-27T21:19:01.649Z,30.03
2022-11-27T21:21:29.569Z,28.77
2022-11-27T21:23:57.978Z,28.03
2022-11-27T21:26:26.147Z,30.70
2022-11-27T21:28:53.746Z,28.00
2022-11-27T21:31:24.940Z,27.60
2022-11-27T21:34:02.220Z,28.90
2022-11-27T21:36:33.622Z,29.57
2022-11-27T21:39:02.310Z,29.33
2022-11-27T21:41:31.812Z,32.20
2022-11-27T21:44:01.995Z,30.07
2022-11-27T21:46:30.391Z,29.80
2022-11-27T21:49:02.276Z,30.17
2022-11-27T21:51:30.989Z,31.03
2022-11-27T21:53:59.685Z,29.93
2022-11-27T21:56:29.417Z,30.23
2022-11-27T21:58:57.098Z,29.80
2022-11-27T22:01:25.916Z,28.53
2022-11-27T22:03:57.568Z,33.50
2022-11-27T22:06:28.972Z,32.60
2022-11-27T22:08:59.091Z,32.67
2022-11-27T22:11:30.444Z,33.73
2022-11-27T22:14:00.982Z,33.53
2022-11-27T22:16:31.942Z,36.53
2022-11-27T22:19:00.671Z,46.70
2022-11-27T22:21:30.363Z,40.97
2022-11-27T22:23:58.756Z,36.07
2022-11-27T22:26:26.308Z,32.87
2022-11-27T22:28:54.202Z,29.23
2022-11-27T22:31:34.724Z,32.83
2022-11-27T22:34:02.337Z,34.30
2022-11-27T22:36:33.149Z,32.50
2022-11-27T22:39:04.580Z,32.57
2022-11-27T22:41:36.316Z,29.90
2022-11-27T22:44:15.216Z,29.17
2022-11-27T22:46:43.464Z,30.40
2022-11-27T22:49:14.239Z,31.20
2022-11-27T22:51:42.146Z,31.63
2022-11-27T22:54:13.836Z,30.87
2022-11-27T22:56:41.846Z,31.97
2022-11-27T23:01:57.972Z,29.70
2022-11-27T23:04:25.441Z,30.03
2022-11-27T23:06:52.925Z,31.30
2022-11-27T23:09:20.315Z,30.70
2022-11-27T23:11:48.105Z,30.17
2022-11-27T23:14:15.807Z,29.90
2022-11-27T23:16:43.363Z,31.67
2022-11-27T23:19:11.910Z,31.57
2022-11-27T23:21:40.046Z,32.43
2022-11-27T23:24:11.935Z,32.60
2022-11-27T23:26:39.490Z,32.67
2022-11-27T23:29:07.519Z,32.80
2022-11-27T23:31:36.287Z,32.90
2022-11-27T23:34:08.530Z,33.53
2022-11-27T23:36:37.358Z,32.27
2022-11-27T23:39:07.561Z,33.33
2022-11-27T23:41:35.447Z,33.77
2022-11-27T23:44:02.965Z,32.17
2022-11-27T23:46:31.638Z,32.33
2022-11-27T23:49:00.519Z,32.90
2022-11-27T23:51:33.469Z,34.00
2022-11-27T23:54:02.247Z,35.17
2022-11-27T23:56:32.114Z,36.03
2022-11-27T23:59:00.186Z,35.83
